sensor_id;sensor_type;location;lat;lon;timestamp;P1;durP1;ratioP1;P2;durP2;ratioP2
15358;SDS011;7779;49.596;11.070;2023-08-30T00:00:56;0.60;;;0.60;;
15358;SDS011;7779;49.596;11.070;2023-08-30T00:03:21;0.60;;;0.60;;
15358;SDS011;7779;49.596;11.070;2023-08-30T00:05:47;0.60;;;0.60;;
15358;SDS011;7779;49.596;11.070;2023-08-30T00:08:13;0.70;;;0.70;;
15358;SDS011;7779;49.596;11.070;2023-08-30T00:10:43;1.80;;;0.87;;
15358;SDS011;7779;49.596;11.070;2023-08-30T00:13:10;0.80;;;0.80;;
15358;SDS011;7779;49.596;11.070;2023-08-30T00:15:36;0.97;;;0.70;;
15358;SDS011;7779;49.596;11.070;2023-08-30T00:18:02;5.00;;;0.90;;
15358;SDS011;7779;49.596;11.070;2023-08-30T00:20:29;1.93;;;0.70;;
15358;SDS011;7779;49.596;11.070;2023-08-30T00:22:54;0.90;;;0.90;;
15358;SDS011;7779;49.596;11.070;2023-08-30T00:25:20;0.70;;;0.70;;
15358;SDS011;7779;49.596;11.070;2023-08-30T00:27:46;1.20;;;0.80;;
15358;SDS011;7779;49.596;11.070;2023-08-30T00:30:11;2.67;;;0.90;;
15358;SDS011;7779;49.596;11.070;2023-08-30T00:32:37;0.80;;;0.77;;
15358;SDS011;7779;49.596;11.070;2023-08-30T00:35:03;0.80;;;0.80;;
15358;SDS011;7779;49.596;11.070;2023-08-30T00:37:29;1.03;;;0.77;;
15358;SDS011;7779;49.596;11.070;2023-08-30T00:39:55;0.87;;;0.87;;
15358;SDS011;7779;49.596;11.070;2023-08-30T00:42:21;0.73;;;0.70;;
15358;SDS011;7779;49.596;11.070;2023-08-30T00:44:48;2.83;;;0.80;;
15358;SDS011;7779;49.596;11.070;2023-08-30T00:47:14;0.97;;;0.80;;
15358;SDS011;7779;49.596;11.070;2023-08-30T00:49:41;1.00;;;1.00;;
15358;SDS011;7779;49.596;11.070;2023-08-30T00:52:07;0.63;;;0.63;;
15358;SDS011;7779;49.596;11.070;2023-08-30T00:54:35;1.47;;;0.70;;
15358;SDS011;7779;49.596;11.070;2023-08-30T00:57:03;1.67;;;0.90;;
15358;SDS011;7779;49.596;11.070;2023-08-30T00:59:32;0.80;;;0.70;;
15358;SDS011;7779;49.596;11.070;2023-08-30T01:01:59;1.30;;;0.63;;
15358;SDS011;7779;49.596;11.070;2023-08-30T01:04:28;1.07;;;0.70;;
15358;SDS011;7779;49.596;11.070;2023-08-30T01:06:54;1.93;;;0.60;;
15358;SDS011;7779;49.596;11.070;2023-08-30T01:09:20;1.53;;;0.70;;
15358;SDS011;7779;49.596;11.070;2023-08-30T01:14:27;0.87;;;0.80;;
15358;SDS011;7779;49.596;11.070;2023-08-30T01:17:04;1.63;;;0.97;;
15358;SDS011;7779;49.596;11.070;2023-08-30T01:22:19;2.40;;;0.80;;
15358;SDS011;7779;49.596;11.070;2023-08-30T01:25:12;1.90;;;0.90;;
15358;SDS011;7779;49.596;11.070;2023-08-30T01:28:00;3.33;;;0.90;;
15358;SDS011;7779;49.596;11.070;2023-08-30T01:30:31;2.30;;;1.00;;
15358;SDS011;7779;49.596;11.070;2023-08-30T01:33:01;6.27;;;1.23;;
15358;SDS011;7779;49.596;11.070;2023-08-30T01:35:30;2.43;;;1.20;;
15358;SDS011;7779;49.596;11.070;2023-08-30T01:38:01;3.07;;;0.97;;
15358;SDS011;7779;49.596;11.070;2023-08-30T01:40:36;1.83;;;0.90;;
15358;SDS011;7779;49.596;11.070;2023-08-30T01:43:06;0.90;;;0.70;;
15358;SDS011;7779;49.596;11.070;2023-08-30T01:45:35;2.00;;;0.90;;
15358;SDS011;7779;49.596;11.070;2023-08-30T01:48:06;2.10;;;0.80;;
15358;SDS011;7779;49.596;11.070;2023-08-30T01:50:37;2.67;;;0.77;;
15358;SDS011;7779;49.596;11.070;2023-08-30T01:53:05;0.80;;;0.80;;
15358;SDS011;7779;49.596;11.070;2023-08-30T01:55:35;0.90;;;0.90;;
15358;SDS011;7779;49.596;11.070;2023-08-30T01:58:02;2.10;;;0.80;;
15358;SDS011;7779;49.596;11.070;2023-08-30T02:00:29;1.70;;;0.70;;
15358;SDS011;7779;49.596;11.070;2023-08-30T02:02:56;1.93;;;0.70;;
15358;SDS011;7779;49.596;11.070;2023-08-30T02:05:22;2.53;;;1.00;;
15358;SDS011;7779;49.596;11.070;2023-08-30T02:10:40;1.40;;;0.83;;
15358;SDS011;7779;49.596;11.070;2023-08-30T02:13:13;0.83;;;0.77;;
15358;SDS011;7779;49.596;11.070;2023-08-30T02:15:41;1.53;;;0.90;;
15358;SDS011;7779;49.596;11.070;2023-08-30T02:18:08;2.60;;;1.00;;
15358;SDS011;7779;49.596;11.070;2023-08-30T02:20:34;2.77;;;0.90;;
15358;SDS011;7779;49.596;11.070;2023-08-30T02:23:00;1.33;;;0.90;;
15358;SDS011;7779;49.596;11.070;2023-08-30T02:25:26;1.50;;;0.87;;
15358;SDS011;7779;49.596;11.070;2023-08-30T02:27:53;0.80;;;0.80;;
15358;SDS011;7779;49.596;11.070;2023-08-30T02:30:19;2.90;;;0.90;;
15358;SDS011;7779;49.596;11.070;2023-08-30T02:32:45;2.00;;;0.93;;
15358;SDS011;7779;49.596;11.070;2023-08-30T02:35:10;2.53;;;0.97;;
15358;SDS011;7779;49.596;11.070;2023-08-30T02:37:37;2.67;;;0.70;;
15358;SDS011;7779;49.596;11.070;2023-08-30T02:40:02;1.43;;;0.90;;
15358;SDS011;7779;49.596;11.070;2023-08-30T02:42:28;1.47;;;1.00;;
15358;SDS011;7779;49.596;11.070;2023-08-30T02:44:54;2.80;;;1.00;;
15358;SDS011;7779;49.596;11.070;2023-08-30T02:47:20;2.07;;;0.93;;
15358;SDS011;7779;49.596;11.070;2023-08-30T02:49:45;3.13;;;1.00;;
15358;SDS011;7779;49.596;11.070;2023-08-30T02:52:11;0.83;;;0.67;;
15358;SDS011;7779;49.596;11.070;2023-08-30T02:54:37;1.43;;;0.70;;
15358;SDS011;7779;49.596;11.070;2023-08-30T02:57:03;0.80;;;0.80;;
15358;SDS011;7779;49.596;11.070;2023-08-30T02:59:29;1.80;;;0.80;;
15358;SDS011;7779;49.596;11.070;2023-08-30T03:02:02;1.30;;;0.80;;
15358;SDS011;7779;49.596;11.070;2023-08-30T03:04:28;2.27;;;1.20;;
15358;SDS011;7779;49.596;11.070;2023-08-30T03:06:54;0.93;;;0.67;;
15358;SDS011;7779;49.596;11.070;2023-08-30T03:09:22;2.33;;;0.87;;
15358;SDS011;7779;49.596;11.070;2023-08-30T03:11:48;1.03;;;0.90;;
15358;SDS011;7779;49.596;11.070;2023-08-30T03:14:14;2.37;;;1.00;;
15358;SDS011;7779;49.596;11.070;2023-08-30T03:16:41;1.00;;;0.90;;
15358;SDS011;7779;49.596;11.070;2023-08-30T03:19:09;0.90;;;0.60;;
15358;SDS011;7779;49.596;11.070;2023-08-30T03:21:35;0.87;;;0.80;;
15358;SDS011;7779;49.596;11.070;2023-08-30T03:24:01;2.33;;;0.93;;
15358;SDS011;7779;49.596;11.070;2023-08-30T03:26:27;2.77;;;1.00;;
15358;SDS011;7779;49.596;11.070;2023-08-30T03:28:53;2.13;;;0.80;;
15358;SDS011;7779;49.596;11.070;2023-08-30T03:31:20;1.77;;;0.90;;
15358;SDS011;7779;49.596;11.070;2023-08-30T03:33:47;2.23;;;0.90;;
15358;SDS011;7779;49.596;11.070;2023-08-30T03:36:14;0.80;;;0.80;;
15358;SDS011;7779;49.596;11.070;2023-08-30T03:38:43;1.27;;;0.83;;
15358;SDS011;7779;49.596;11.070;2023-08-30T03:41:10;1.90;;;0.87;;
15358;SDS011;7779;49.596;11.070;2023-08-30T03:43:37;1.70;;;0.80;;
15358;SDS011;7779;49.596;11.070;2023-08-30T03:46:04;3.53;;;1.10;;
15358;SDS011;7779;49.596;11.070;2023-08-30T03:48:30;2.63;;;1.27;;
15358;SDS011;7779;49.596;11.070;2023-08-30T03:50:56;5.07;;;2.00;;
15358;SDS011;7779;49.596;11.070;2023-08-30T03:53:23;2.83;;;1.80;;
15358;SDS011;7779;49.596;11.070;2023-08-30T03:55:49;2.77;;;1.50;;
15358;SDS011;7779;49.596;11.070;2023-08-30T03:58:16;5.43;;;1.80;;
15358;SDS011;7779;49.596;11.070;2023-08-30T04:00:43;2.83;;;1.80;;
15358;SDS011;7779;49.596;11.070;2023-08-30T04:03:10;2.80;;;1.63;;
15358;SDS011;7779;49.596;11.070;2023-08-30T04:05:39;3.23;;;1.67;;
15358;SDS011;7779;49.596;11.070;2023-08-30T04:08:05;3.43;;;1.80;;
15358;SDS011;7779;49.596;11.070;2023-08-30T04:10:36;2.63;;;1.70;;
15358;SDS011;7779;49.596;11.070;2023-08-30T04:13:02;4.13;;;2.10;;
15358;SDS011;7779;49.596;11.070;2023-08-30T04:15:33;4.43;;;2.33;;
15358;SDS011;7779;49.596;11.070;2023-08-30T04:18:01;6.13;;;2.87;;
15358;SDS011;7779;49.596;11.070;2023-08-30T04:20:30;5.53;;;2.53;;
15358;SDS011;7779;49.596;11.070;2023-08-30T04:22:58;5.43;;;2.47;;
15358;SDS011;7779;49.596;11.070;2023-08-30T04:25:29;3.77;;;2.10;;
15358;SDS011;7779;49.596;11.070;2023-08-30T04:27:57;6.03;;;2.50;;
15358;SDS011;7779;49.596;11.070;2023-08-30T04:30:24;5.47;;;2.00;;
15358;SDS011;7779;49.596;11.070;2023-08-30T04:32:50;3.27;;;2.40;;
15358;SDS011;7779;49.596;11.070;2023-08-30T04:35:16;3.50;;;1.93;;
15358;SDS011;7779;49.596;11.070;2023-08-30T04:37:42;2.53;;;1.97;;
15358;SDS011;7779;49.596;11.070;2023-08-30T04:40:08;4.20;;;2.30;;
15358;SDS011;7779;49.596;11.070;2023-08-30T04:42:35;3.63;;;2.10;;
15358;SDS011;7779;49.596;11.070;2023-08-30T04:45:02;2.53;;;2.10;;
15358;SDS011;7779;49.596;11.070;2023-08-30T04:47:30;4.90;;;2.30;;
15358;SDS011;7779;49.596;11.070;2023-08-30T04:49:58;3.57;;;2.17;;
15358;SDS011;7779;49.596;11.070;2023-08-30T04:52:25;2.93;;;1.80;;
15358;SDS011;7779;49.596;11.070;2023-08-30T04:54:54;3.43;;;2.40;;
15358;SDS011;7779;49.596;11.070;2023-08-30T04:57:21;2.83;;;2.07;;
15358;SDS011;7779;49.596;11.070;2023-08-30T04:59:47;3.17;;;2.50;;
15358;SDS011;7779;49.596;11.070;2023-08-30T05:02:14;3.70;;;2.40;;
15358;SDS011;7779;49.596;11.070;2023-08-30T05:04:58;2.93;;;2.13;;
15358;SDS011;7779;49.596;11.070;2023-08-30T05:07:24;3.30;;;2.40;;
15358;SDS011;7779;49.596;11.070;2023-08-30T05:09:50;2.67;;;2.30;;
15358;SDS011;7779;49.596;11.070;2023-08-30T05:12:16;5.40;;;2.57;;
15358;SDS011;7779;49.596;11.070;2023-08-30T05:14:42;3.23;;;2.57;;
15358;SDS011;7779;49.596;11.070;2023-08-30T05:17:08;2.87;;;2.23;;
15358;SDS011;7779;49.596;11.070;2023-08-30T05:19:33;2.50;;;2.13;;
15358;SDS011;7779;49.596;11.070;2023-08-30T05:21:59;2.50;;;1.90;;
15358;SDS011;7779;49.596;11.070;2023-08-30T05:24:25;2.23;;;1.97;;
15358;SDS011;7779;49.596;11.070;2023-08-30T05:26:52;9.03;;;2.03;;
15358;SDS011;7779;49.596;11.070;2023-08-30T05:29:18;3.03;;;2.10;;
15358;SDS011;7779;49.596;11.070;2023-08-30T05:31:44;2.20;;;2.00;;
15358;SDS011;7779;49.596;11.070;2023-08-30T05:34:23;4.00;;;2.10;;
15358;SDS011;7779;49.596;11.070;2023-08-30T05:37:17;2.23;;;2.03;;
15358;SDS011;7779;49.596;11.070;2023-08-30T05:40:04;4.13;;;2.30;;
15358;SDS011;7779;49.596;11.070;2023-08-30T05:42:30;2.57;;;2.20;;
15358;SDS011;7779;49.596;11.070;2023-08-30T05:44:56;2.80;;;2.20;;
15358;SDS011;7779;49.596;11.070;2023-08-30T05:47:22;3.63;;;2.00;;
15358;SDS011;7779;49.596;11.070;2023-08-30T05:49:49;2.40;;;2.20;;
15358;SDS011;7779;49.596;11.070;2023-08-30T05:52:15;2.90;;;2.60;;
15358;SDS011;7779;49.596;11.070;2023-08-30T05:54:41;3.43;;;2.83;;
15358;SDS011;7779;49.596;11.070;2023-08-30T05:57:10;2.83;;;2.57;;
15358;SDS011;7779;49.596;11.070;2023-08-30T05:59:36;3.20;;;2.77;;
15358;SDS011;7779;49.596;11.070;2023-08-30T06:02:02;4.53;;;3.10;;
15358;SDS011;7779;49.596;11.070;2023-08-30T06:04:29;3.90;;;2.90;;
15358;SDS011;7779;49.596;11.070;2023-08-30T06:06:55;3.57;;;3.10;;
15358;SDS011;7779;49.596;11.070;2023-08-30T06:09:20;4.10;;;3.30;;
15358;SDS011;7779;49.596;11.070;2023-08-30T06:11:46;4.67;;;3.10;;
15358;SDS011;7779;49.596;11.070;2023-08-30T06:14:12;3.40;;;3.10;;
15358;SDS011;7779;49.596;11.070;2023-08-30T06:16:37;3.80;;;3.40;;
15358;SDS011;7779;49.596;11.070;2023-08-30T06:19:03;5.10;;;3.67;;
15358;SDS011;7779;49.596;11.070;2023-08-30T06:21:29;3.93;;;3.63;;
15358;SDS011;7779;49.596;11.070;2023-08-30T06:23:55;4.30;;;3.77;;
15358;SDS011;7779;49.596;11.070;2023-08-30T06:26:20;4.30;;;3.90;;
15358;SDS011;7779;49.596;11.070;2023-08-30T06:28:46;4.67;;;4.17;;
15358;SDS011;7779;49.596;11.070;2023-08-30T06:31:12;5.17;;;4.53;;
15358;SDS011;7779;49.596;11.070;2023-08-30T06:33:38;4.63;;;4.23;;
15358;SDS011;7779;49.596;11.070;2023-08-30T06:36:04;4.67;;;4.27;;
15358;SDS011;7779;49.596;11.070;2023-08-30T06:38:31;5.07;;;4.57;;
15358;SDS011;7779;49.596;11.070;2023-08-30T06:40:59;5.03;;;4.53;;
15358;SDS011;7779;49.596;11.070;2023-08-30T06:43:25;4.97;;;4.57;;
15358;SDS011;7779;49.596;11.070;2023-08-30T06:45:51;5.53;;;4.90;;
15358;SDS011;7779;49.596;11.070;2023-08-30T06:48:18;5.83;;;4.90;;
15358;SDS011;7779;49.596;11.070;2023-08-30T06:50:44;5.77;;;5.17;;
15358;SDS011;7779;49.596;11.070;2023-08-30T06:53:09;4.60;;;4.20;;
15358;SDS011;7779;49.596;11.070;2023-08-30T06:55:35;5.00;;;4.60;;
15358;SDS011;7779;49.596;11.070;2023-08-30T06:58:02;4.57;;;4.17;;
15358;SDS011;7779;49.596;11.070;2023-08-30T07:00:28;4.63;;;4.23;;
15358;SDS011;7779;49.596;11.070;2023-08-30T07:02:54;4.63;;;4.23;;
15358;SDS011;7779;49.596;11.070;2023-08-30T07:05:19;4.30;;;3.90;;
15358;SDS011;7779;49.596;11.070;2023-08-30T07:07:47;4.47;;;4.07;;
15358;SDS011;7779;49.596;11.070;2023-08-30T07:10:13;4.53;;;4.13;;
15358;SDS011;7779;49.596;11.070;2023-08-30T07:12:39;4.90;;;4.40;;
15358;SDS011;7779;49.596;11.070;2023-08-30T07:15:04;6.57;;;4.03;;
15358;SDS011;7779;49.596;11.070;2023-08-30T07:17:31;4.60;;;4.20;;
15358;SDS011;7779;49.596;11.070;2023-08-30T07:19:56;4.57;;;4.17;;
15358;SDS011;7779;49.596;11.070;2023-08-30T07:22:22;4.43;;;4.03;;
15358;SDS011;7779;49.596;11.070;2023-08-30T07:24:48;4.97;;;4.03;;
15358;SDS011;7779;49.596;11.070;2023-08-30T07:27:13;4.47;;;4.07;;
15358;SDS011;7779;49.596;11.070;2023-08-30T07:29:39;5.00;;;4.13;;
15358;SDS011;7779;49.596;11.070;2023-08-30T07:32:06;4.63;;;4.23;;
15358;SDS011;7779;49.596;11.070;2023-08-30T07:34:32;5.10;;;4.70;;
15358;SDS011;7779;49.596;11.070;2023-08-30T07:36:58;5.80;;;4.80;;
15358;SDS011;7779;49.596;11.070;2023-08-30T07:39:24;5.30;;;4.80;;
15358;SDS011;7779;49.596;11.070;2023-08-30T07:41:50;5.60;;;5.13;;
15358;SDS011;7779;49.596;11.070;2023-08-30T07:44:16;6.17;;;5.10;;
15358;SDS011;7779;49.596;11.070;2023-08-30T07:46:41;6.23;;;4.80;;
15358;SDS011;7779;49.596;11.070;2023-08-30T07:49:07;5.93;;;5.33;;
15358;SDS011;7779;49.596;11.070;2023-08-30T07:51:33;5.13;;;4.63;;
15358;SDS011;7779;49.596;11.070;2023-08-30T07:53:59;5.13;;;4.70;;
15358;SDS011;7779;49.596;11.070;2023-08-30T07:56:25;5.13;;;4.50;;
15358;SDS011;7779;49.596;11.070;2023-08-30T07:58:51;6.53;;;4.23;;
15358;SDS011;7779;49.596;11.070;2023-08-30T08:01:16;4.77;;;4.37;;
15358;SDS011;7779;49.596;11.070;2023-08-30T08:03:42;5.03;;;4.53;;
15358;SDS011;7779;49.596;11.070;2023-08-30T08:06:08;4.43;;;4.03;;
15358;SDS011;7779;49.596;11.070;2023-08-30T08:08:33;4.77;;;4.37;;
15358;SDS011;7779;49.596;11.070;2023-08-30T08:10:59;3.97;;;3.63;;
15358;SDS011;7779;49.596;11.070;2023-08-30T08:13:25;4.23;;;3.80;;
15358;SDS011;7779;49.596;11.070;2023-08-30T08:15:51;4.13;;;3.70;;
15358;SDS011;7779;49.596;11.070;2023-08-30T08:18:16;4.00;;;3.60;;
15358;SDS011;7779;49.596;11.070;2023-08-30T08:20:42;3.40;;;3.07;;
15358;SDS011;7779;49.596;11.070;2023-08-30T08:23:08;5.83;;;3.33;;
15358;SDS011;7779;49.596;11.070;2023-08-30T08:25:34;3.80;;;3.40;;
15358;SDS011;7779;49.596;11.070;2023-08-30T08:28:00;4.30;;;3.60;;
15358;SDS011;7779;49.596;11.070;2023-08-30T08:30:26;3.50;;;3.13;;
15358;SDS011;7779;49.596;11.070;2023-08-30T08:32:51;3.73;;;3.43;;
15358;SDS011;7779;49.596;11.070;2023-08-30T08:35:17;3.17;;;2.97;;
15358;SDS011;7779;49.596;11.070;2023-08-30T08:37:43;3.70;;;3.40;;
15358;SDS011;7779;49.596;11.070;2023-08-30T08:40:08;5.37;;;3.70;;
15358;SDS011;7779;49.596;11.070;2023-08-30T08:42:35;4.37;;;3.97;;
15358;SDS011;7779;49.596;11.070;2023-08-30T08:45:02;4.77;;;4.27;;
15358;SDS011;7779;49.596;11.070;2023-08-30T08:47:29;5.43;;;4.20;;
15358;SDS011;7779;49.596;11.070;2023-08-30T08:49:56;6.17;;;4.03;;
15358;SDS011;7779;49.596;11.070;2023-08-30T08:52:25;4.00;;;3.57;;
15358;SDS011;7779;49.596;11.070;2023-08-30T08:54:52;3.97;;;3.57;;
15358;SDS011;7779;49.596;11.070;2023-08-30T08:57:19;3.83;;;3.53;;
15358;SDS011;7779;49.596;11.070;2023-08-30T08:59:46;4.43;;;4.03;;
15358;SDS011;7779;49.596;11.070;2023-08-30T09:02:13;5.00;;;4.30;;
15358;SDS011;7779;49.596;11.070;2023-08-30T09:04:40;4.23;;;3.93;;
15358;SDS011;7779;49.596;11.070;2023-08-30T09:07:05;4.57;;;4.17;;
15358;SDS011;7779;49.596;11.070;2023-08-30T09:09:32;5.27;;;3.70;;
15358;SDS011;7779;49.596;11.070;2023-08-30T09:11:59;4.13;;;3.73;;
15358;SDS011;7779;49.596;11.070;2023-08-30T09:14:25;3.93;;;3.37;;
15358;SDS011;7779;49.596;11.070;2023-08-30T09:16:57;3.87;;;3.50;;
15358;SDS011;7779;49.596;11.070;2023-08-30T09:19:28;3.33;;;3.03;;
15358;SDS011;7779;49.596;11.070;2023-08-30T09:21:59;4.00;;;3.53;;
15358;SDS011;7779;49.596;11.070;2023-08-30T09:24:25;4.53;;;3.80;;
15358;SDS011;7779;49.596;11.070;2023-08-30T09:27:03;3.20;;;2.90;;
15358;SDS011;7779;49.596;11.070;2023-08-30T09:29:28;4.10;;;3.17;;
15358;SDS011;7779;49.596;11.070;2023-08-30T09:31:55;3.33;;;2.90;;
15358;SDS011;7779;49.596;11.070;2023-08-30T09:34:24;3.83;;;2.90;;
15358;SDS011;7779;49.596;11.070;2023-08-30T09:36:50;3.77;;;2.80;;
15358;SDS011;7779;49.596;11.070;2023-08-30T09:39:17;4.30;;;3.20;;
15358;SDS011;7779;49.596;11.070;2023-08-30T09:41:44;3.23;;;2.43;;
15358;SDS011;7779;49.596;11.070;2023-08-30T09:44:12;3.17;;;2.87;;
15358;SDS011;7779;49.596;11.070;2023-08-30T09:46:43;3.40;;;3.13;;
15358;SDS011;7779;49.596;11.070;2023-08-30T09:49:11;3.93;;;3.63;;
15358;SDS011;7779;49.596;11.070;2023-08-30T09:51:41;3.03;;;2.83;;
15358;SDS011;7779;49.596;11.070;2023-08-30T09:54:14;3.93;;;3.50;;
15358;SDS011;7779;49.596;11.070;2023-08-30T09:56:45;3.47;;;3.17;;
15358;SDS011;7779;49.596;11.070;2023-08-30T09:59:13;3.97;;;3.53;;
15358;SDS011;7779;49.596;11.070;2023-08-30T10:01:40;3.20;;;3.00;;
15358;SDS011;7779;49.596;11.070;2023-08-30T10:04:08;3.93;;;3.10;;
15358;SDS011;7779;49.596;11.070;2023-08-30T10:06:38;3.40;;;3.10;;
15358;SDS011;7779;49.596;11.070;2023-08-30T10:09:05;3.13;;;2.47;;
15358;SDS011;7779;49.596;11.070;2023-08-30T10:11:34;3.10;;;2.80;;
15358;SDS011;7779;49.596;11.070;2023-08-30T10:14:02;2.83;;;2.63;;
15358;SDS011;7779;49.596;11.070;2023-08-30T10:16:54;4.50;;;3.17;;
15358;SDS011;7779;49.596;11.070;2023-08-30T10:19:27;4.13;;;3.37;;
15358;SDS011;7779;49.596;11.070;2023-08-30T10:21:55;3.80;;;3.50;;
15358;SDS011;7779;49.596;11.070;2023-08-30T10:24:29;3.90;;;3.60;;
15358;SDS011;7779;49.596;11.070;2023-08-30T10:27:06;3.53;;;3.20;;
15358;SDS011;7779;49.596;11.070;2023-08-30T10:29:35;3.70;;;3.40;;
15358;SDS011;7779;49.596;11.070;2023-08-30T10:32:04;4.20;;;3.80;;
15358;SDS011;7779;49.596;11.070;2023-08-30T10:34:34;4.00;;;3.70;;
15358;SDS011;7779;49.596;11.070;2023-08-30T10:37:08;4.27;;;3.97;;
15358;SDS011;7779;49.596;11.070;2023-08-30T10:39:40;4.53;;;4.13;;
15358;SDS011;7779;49.596;11.070;2023-08-30T10:42:08;4.47;;;4.10;;
15358;SDS011;7779;49.596;11.070;2023-08-30T10:47:19;4.60;;;4.20;;
15358;SDS011;7779;49.596;11.070;2023-08-30T10:49:47;4.13;;;3.83;;
15358;SDS011;7779;49.596;11.070;2023-08-30T10:52:14;4.30;;;4.00;;
15358;SDS011;7779;49.596;11.070;2023-08-30T10:54:40;3.63;;;3.33;;
15358;SDS011;7779;49.596;11.070;2023-08-30T10:57:11;4.37;;;3.97;;
15358;SDS011;7779;49.596;11.070;2023-08-30T11:00:19;3.77;;;3.43;;
15358;SDS011;7779;49.596;11.070;2023-08-30T11:02:43;3.80;;;3.50;;
15358;SDS011;7779;49.596;11.070;2023-08-30T11:05:11;4.50;;;4.10;;
15358;SDS011;7779;49.596;11.070;2023-08-30T11:07:37;4.30;;;3.90;;
15358;SDS011;7779;49.596;11.070;2023-08-30T11:10:06;3.83;;;3.53;;
15358;SDS011;7779;49.596;11.070;2023-08-30T11:12:33;3.80;;;3.50;;
15358;SDS011;7779;49.596;11.070;2023-08-30T11:15:00;3.90;;;3.60;;
15358;SDS011;7779;49.596;11.070;2023-08-30T11:17:27;4.00;;;3.70;;
15358;SDS011;7779;49.596;11.070;2023-08-30T11:19:57;3.70;;;3.40;;
15358;SDS011;7779;49.596;11.070;2023-08-30T11:22:31;3.87;;;3.57;;
15358;SDS011;7779;49.596;11.070;2023-08-30T11:24:59;4.27;;;3.90;;
15358;SDS011;7779;49.596;11.070;2023-08-30T11:27:25;3.93;;;3.57;;
15358;SDS011;7779;49.596;11.070;2023-08-30T11:29:51;3.97;;;3.67;;
15358;SDS011;7779;49.596;11.070;2023-08-30T11:32:16;4.17;;;3.80;;
15358;SDS011;7779;49.596;11.070;2023-08-30T11:34:42;3.70;;;3.40;;
15358;SDS011;7779;49.596;11.070;2023-08-30T11:37:09;3.87;;;3.57;;
15358;SDS011;7779;49.596;11.070;2023-08-30T11:39:35;3.77;;;3.20;;
15358;SDS011;7779;49.596;11.070;2023-08-30T11:42:03;3.53;;;3.23;;
15358;SDS011;7779;49.596;11.070;2023-08-30T11:44:30;3.23;;;3.03;;
15358;SDS011;7779;49.596;11.070;2023-08-30T11:46:58;3.33;;;3.03;;
15358;SDS011;7779;49.596;11.070;2023-08-30T11:49:25;3.33;;;3.03;;
15358;SDS011;7779;49.596;11.070;2023-08-30T11:51:53;3.07;;;2.83;;
15358;SDS011;7779;49.596;11.070;2023-08-30T11:54:22;3.43;;;3.07;;
15358;SDS011;7779;49.596;11.070;2023-08-30T11:56:51;3.80;;;3.50;;
15358;SDS011;7779;49.596;11.070;2023-08-30T11:59:20;4.60;;;4.20;;
15358;SDS011;7779;49.596;11.070;2023-08-30T12:01:47;4.13;;;3.60;;
15358;SDS011;7779;49.596;11.070;2023-08-30T12:04:14;3.83;;;3.43;;
15358;SDS011;7779;49.596;11.070;2023-08-30T12:06:40;4.47;;;4.00;;
15358;SDS011;7779;49.596;11.070;2023-08-30T12:09:11;4.30;;;3.90;;
15358;SDS011;7779;49.596;11.070;2023-08-30T12:11:37;4.07;;;3.77;;
15358;SDS011;7779;49.596;11.070;2023-08-30T12:14:03;3.87;;;3.43;;
15358;SDS011;7779;49.596;11.070;2023-08-30T12:16:29;3.70;;;3.40;;
15358;SDS011;7779;49.596;11.070;2023-08-30T12:18:55;3.87;;;3.57;;
15358;SDS011;7779;49.596;11.070;2023-08-30T12:21:21;3.70;;;3.23;;
15358;SDS011;7779;49.596;11.070;2023-08-30T12:23:47;3.73;;;3.20;;
15358;SDS011;7779;49.596;11.070;2023-08-30T12:26:12;3.33;;;3.10;;
15358;SDS011;7779;49.596;11.070;2023-08-30T12:28:39;3.83;;;3.27;;
15358;SDS011;7779;49.596;11.070;2023-08-30T12:31:07;3.30;;;3.00;;
15358;SDS011;7779;49.596;11.070;2023-08-30T12:33:33;4.30;;;3.20;;
15358;SDS011;7779;49.596;11.070;2023-08-30T12:36:00;3.93;;;3.10;;
15358;SDS011;7779;49.596;11.070;2023-08-30T12:38:26;3.57;;;3.27;;
15358;SDS011;7779;49.596;11.070;2023-08-30T12:40:53;2.73;;;2.53;;
15358;SDS011;7779;49.596;11.070;2023-08-30T12:43:20;3.20;;;3.00;;
15358;SDS011;7779;49.596;11.070;2023-08-30T12:45:49;3.40;;;3.10;;
15358;SDS011;7779;49.596;11.070;2023-08-30T12:48:16;3.00;;;2.73;;
15358;SDS011;7779;49.596;11.070;2023-08-30T12:50:44;3.30;;;3.00;;
15358;SDS011;7779;49.596;11.070;2023-08-30T12:53:12;3.10;;;2.80;;
15358;SDS011;7779;49.596;11.070;2023-08-30T12:55:38;3.53;;;2.93;;
15358;SDS011;7779;49.596;11.070;2023-08-30T12:58:06;2.77;;;2.53;;
15358;SDS011;7779;49.596;11.070;2023-08-30T13:00:33;2.77;;;2.57;;
15358;SDS011;7779;49.596;11.070;2023-08-30T13:03:00;2.93;;;2.73;;
15358;SDS011;7779;49.596;11.070;2023-08-30T13:05:26;3.10;;;2.80;;
15358;SDS011;7779;49.596;11.070;2023-08-30T13:07:52;2.90;;;2.70;;
15358;SDS011;7779;49.596;11.070;2023-08-30T13:10:18;3.10;;;2.80;;
15358;SDS011;7779;49.596;11.070;2023-08-30T13:12:43;3.10;;;2.90;;
15358;SDS011;7779;49.596;11.070;2023-08-30T13:15:09;3.67;;;3.30;;
15358;SDS011;7779;49.596;11.070;2023-08-30T13:17:36;3.47;;;3.17;;
15358;SDS011;7779;49.596;11.070;2023-08-30T13:20:01;3.03;;;2.83;;
15358;SDS011;7779;49.596;11.070;2023-08-30T13:22:28;3.23;;;3.00;;
15358;SDS011;7779;49.596;11.070;2023-08-30T13:24:54;3.20;;;2.90;;
15358;SDS011;7779;49.596;11.070;2023-08-30T13:27:20;3.23;;;3.03;;
15358;SDS011;7779;49.596;11.070;2023-08-30T13:29:46;3.03;;;2.80;;
15358;SDS011;7779;49.596;11.070;2023-08-30T13:32:12;3.40;;;3.10;;
15358;SDS011;7779;49.596;11.070;2023-08-30T13:34:38;3.60;;;3.30;;
15358;SDS011;7779;49.596;11.070;2023-08-30T13:37:10;3.07;;;2.87;;
15358;SDS011;7779;49.596;11.070;2023-08-30T13:39:39;3.17;;;2.93;;
15358;SDS011;7779;49.596;11.070;2023-08-30T13:42:05;3.00;;;2.80;;
15358;SDS011;7779;49.596;11.070;2023-08-30T13:44:31;3.00;;;2.80;;
15358;SDS011;7779;49.596;11.070;2023-08-30T13:47:03;3.23;;;2.93;;
15358;SDS011;7779;49.596;11.070;2023-08-30T13:49:30;3.07;;;2.87;;
15358;SDS011;7779;49.596;11.070;2023-08-30T13:51:56;3.20;;;3.00;;
15358;SDS011;7779;49.596;11.070;2023-08-30T13:54:22;3.57;;;3.03;;
15358;SDS011;7779;49.596;11.070;2023-08-30T13:56:48;3.10;;;2.80;;
15358;SDS011;7779;49.596;11.070;2023-08-30T13:59:14;3.40;;;3.10;;
15358;SDS011;7779;49.596;11.070;2023-08-30T14:01:40;2.90;;;2.70;;
15358;SDS011;7779;49.596;11.070;2023-08-30T14:04:06;3.03;;;2.83;;
15358;SDS011;7779;49.596;11.070;2023-08-30T14:06:32;3.10;;;2.80;;
15358;SDS011;7779;49.596;11.070;2023-08-30T14:08:58;3.07;;;2.57;;
15358;SDS011;7779;49.596;11.070;2023-08-30T14:11:24;3.00;;;2.80;;
15358;SDS011;7779;49.596;11.070;2023-08-30T14:13:49;3.33;;;2.97;;
15358;SDS011;7779;49.596;11.070;2023-08-30T14:16:15;2.90;;;2.70;;
15358;SDS011;7779;49.596;11.070;2023-08-30T14:18:42;2.97;;;2.77;;
15358;SDS011;7779;49.596;11.070;2023-08-30T14:21:08;2.90;;;2.70;;
15358;SDS011;7779;49.596;11.070;2023-08-30T14:23:34;2.90;;;2.60;;
15358;SDS011;7779;49.596;11.070;2023-08-30T14:26:02;3.93;;;2.70;;
15358;SDS011;7779;49.596;11.070;2023-08-30T14:28:37;3.00;;;2.70;;
15358;SDS011;7779;49.596;11.070;2023-08-30T14:31:10;2.80;;;2.60;;
15358;SDS011;7779;49.596;11.070;2023-08-30T14:33:37;3.20;;;2.63;;
15358;SDS011;7779;49.596;11.070;2023-08-30T14:36:11;2.83;;;2.60;;
15358;SDS011;7779;49.596;11.070;2023-08-30T14:38:37;2.60;;;2.40;;
15358;SDS011;7779;49.596;11.070;2023-08-30T14:41:03;2.60;;;2.37;;
15358;SDS011;7779;49.596;11.070;2023-08-30T14:43:29;2.57;;;2.47;;
15358;SDS011;7779;49.596;11.070;2023-08-30T14:46:01;2.10;;;2.00;;
15358;SDS011;7779;49.596;11.070;2023-08-30T14:48:29;2.20;;;2.10;;
15358;SDS011;7779;49.596;11.070;2023-08-30T14:50:56;2.30;;;2.10;;
15358;SDS011;7779;49.596;11.070;2023-08-30T14:53:23;2.60;;;2.40;;
15358;SDS011;7779;49.596;11.070;2023-08-30T14:55:49;2.33;;;2.17;;
15358;SDS011;7779;49.596;11.070;2023-08-30T14:58:15;3.13;;;2.83;;
15358;SDS011;7779;49.596;11.070;2023-08-30T15:00:41;2.70;;;2.10;;